Time;durP1;ratioP1;P1;durP2;ratioP2;P2;SDS_P1;SDS_P2;PMS_P1;PMS_P2;Temp;Humidity;BMP_temperature;BMP_pressure;BME280_temperature;BME280_humidity;BME280_pressure;Samples;Min_cycle;Max_cycle;Signal;HPM_P1;HPM_P2
2024/02/06 00:00:45;;;;;;;5.73;1.27;;;16.60;99.90;;;;;;5050545;28;20037;-74
2024/02/06 00:03:11;;;;;;;4.50;1.90;;;16.60;99.90;;;;;;5046683;28;20039;-74
2024/02/06 00:05:36;;;;;;;4.60;1.70;;;16.60;99.90;;;;;;5050620;28;20254;-73
2024/02/06 00:08:03;;;;;;;5.47;1.97;;;16.60;99.90;;;;;;5050454;28;20075;-74
2024/02/06 00:10:28;;;;;;;2.83;1.50;;;16.60;99.90;;;;;;5050153;28;20028;-74
2024/02/06 00:12:54;;;;;;;6.53;2.00;;;16.60;99.90;;;;;;5051909;28;20033;-74
2024/02/06 00:15:20;;;;;;;7.93;1.80;;;16.60;99.90;;;;;;5051809;28;20025;-74
2024/02/06 00:17:46;;;;;;;5.15;2.20;;;16.60;99.90;;;;;;5051827;28;20406;-74
2024/02/06 00:20:12;;;;;;;5.67;1.73;;;16.60;99.90;;;;;;5051699;28;20037;-74
2024/02/06 00:22:38;;;;;;;6.20;1.55;;;16.60;99.90;;;;;;5051241;28;20017;-74
2024/02/06 00:25:04;;;;;;;7.27;2.07;;;16.60;99.90;;;;;;5051323;28;20465;-74
2024/02/06 00:27:30;;;;;;;3.22;1.55;;;16.60;99.90;;;;;;5050915;28;20029;-74
2024/02/06 00:29:56;;;;;;;5.67;1.60;;;16.60;99.90;;;;;;5051625;28;20031;-74
2024/02/06 00:32:21;;;;;;;5.80;1.97;;;16.60;99.90;;;;;;5039543;28;20367;-73
2024/02/06 00:34:52;;;;;;;3.90;1.93;;;16.60;99.90;;;;;;5051155;28;20109;-73
2024/02/06 00:37:18;;;;;;;3.30;1.73;;;16.60;99.90;;;;;;5051335;28;20395;-74
2024/02/06 00:39:43;;;;;;;5.90;1.77;;;16.50;99.90;;;;;;5047578;28;20030;-74
2024/02/06 00:42:10;;;;;;;6.53;1.40;;;16.50;99.90;;;;;;5043127;28;20106;-73
2024/02/06 00:44:38;;;;;;;5.35;1.77;;;16.60;99.90;;;;;;5042911;28;20052;-74
2024/02/06 00:47:04;;;;;;;6.70;1.75;;;16.50;99.90;;;;;;5051811;28;20037;-74
2024/02/06 00:49:30;;;;;;;9.87;1.87;;;16.50;99.90;;;;;;5044179;28;20028;-74
2024/02/06 00:51:55;;;;;;;5.50;1.60;;;16.50;99.90;;;;;;5048076;28;20033;-74
2024/02/06 00:54:21;;;;;;;7.80;1.53;;;16.50;99.90;;;;;;5034736;28;20033;-74
2024/02/06 00:56:47;;;;;;;5.70;1.77;;;16.50;99.90;;;;;;5046505;28;20032;-74
2024/02/06 00:59:12;;;;;;;8.37;2.20;;;16.50;99.90;;;;;;5048156;28;20025;-74
2024/02/06 01:01:38;;;;;;;6.77;1.77;;;16.50;99.90;;;;;;5049740;28;20047;-73
2024/02/06 01:04:05;;;;;;;8.07;2.40;;;16.50;99.90;;;;;;5049204;28;20466;-74
2024/02/06 01:06:30;;;;;;;3.47;1.73;;;16.50;99.90;;;;;;5047784;28;20028;-74
2024/02/06 01:08:56;;;;;;;7.47;2.47;;;16.50;99.90;;;;;;5048524;28;20040;-74
2024/02/06 01:11:22;;;;;;;6.97;2.47;;;16.50;99.90;;;;;;5050882;28;20021;-74
2024/02/06 01:13:47;;;;;;;7.77;2.77;;;16.50;99.90;;;;;;5049612;28;20103;-74
2024/02/06 01:16:13;;;;;;;3.87;1.57;;;16.50;99.90;;;;;;5037345;28;20102;-74
2024/02/06 01:18:39;;;;;;;5.73;1.63;;;16.50;99.90;;;;;;5039081;28;20024;-74
2024/02/06 01:21:05;;;;;;;9.03;2.10;;;16.50;99.90;;;;;;5046636;28;20521;-74
2024/02/06 01:23:32;;;;;;;7.50;1.50;;;16.50;99.90;;;;;;5043365;28;20127;-75
2024/02/06 01:25:57;;;;;;;6.00;1.63;;;16.50;99.90;;;;;;5046843;28;20063;-74
2024/02/06 01:28:23;;;;;;;9.33;1.93;;;16.50;99.90;;;;;;5037047;28;20127;-74
2024/02/06 01:30:49;;;;;;;7.77;2.30;;;16.50;99.90;;;;;;5044570;28;20665;-74
2024/02/06 01:33:14;;;;;;;4.90;1.40;;;16.50;99.90;;;;;;5029217;28;20026;-74
2024/02/06 01:35:42;;;;;;;5.03;1.17;;;16.40;99.90;;;;;;5031415;28;20037;-74
2024/02/06 01:38:07;;;;;;;5.07;1.80;;;16.50;99.90;;;;;;5041278;28;20033;-75
2024/02/06 01:40:43;;;;;;;6.97;2.00;;;16.50;99.90;;;;;;5043872;28;20048;-74
2024/02/06 01:43:10;;;;;;;6.30;1.70;;;16.50;99.90;;;;;;5045022;28;20029;-75
2024/02/06 01:45:36;;;;;;;5.35;1.70;;;16.50;99.90;;;;;;5035515;28;20550;-75
2024/02/06 01:48:02;;;;;;;3.60;1.80;;;16.40;99.90;;;;;;5046722;28;20094;-74
2024/02/06 01:50:29;;;;;;;8.88;1.92;;;16.40;99.90;;;;;;5039583;28;20104;-75
2024/02/06 01:52:55;;;;;;;5.88;1.60;;;16.40;99.90;;;;;;5045832;28;20033;-75
2024/02/06 01:55:21;;;;;;;5.18;1.90;;;16.40;99.90;;;;;;5038153;28;20481;-74
2024/02/06 01:57:47;;;;;;;5.90;1.63;;;16.40;99.90;;;;;;5031435;28;20061;-74
2024/02/06 02:00:14;;;;;;;4.00;1.20;;;16.40;99.90;;;;;;5047069;28;20025;-75
2024/02/06 02:02:40;;;;;;;6.68;2.03;;;16.40;99.90;;;;;;5049844;28;20029;-74
2024/02/06 02:05:07;;;;;;;6.72;2.08;;;16.40;99.90;;;;;;5049533;28;20028;-75
2024/02/06 02:07:35;;;;;;;9.02;1.63;;;16.40;99.90;;;;;;5050511;28;20036;-74
2024/02/06 02:10:03;;;;;;;7.25;1.95;;;16.40;99.90;;;;;;5050850;28;20063;-74
2024/02/06 02:12:29;;;;;;;7.45;1.85;;;16.40;99.90;;;;;;5054008;28;20036;-75
2024/02/06 02:14:54;;;;;;;9.87;2.27;;;16.40;99.90;;;;;;5054167;28;20032;-74
2024/02/06 02:17:20;;;;;;;4.63;2.43;;;16.40;99.90;;;;;;5053117;28;20421;-74
2024/02/06 02:19:46;;;;;;;4.30;1.67;;;16.40;99.90;;;;;;5051706;28;20124;-74
2024/02/06 02:22:11;;;;;;;8.77;2.63;;;16.40;99.90;;;;;;5049702;28;20445;-74
2024/02/06 02:24:37;;;;;;;7.30;2.03;;;16.40;99.90;;;;;;5045983;28;20033;-74
2024/02/06 02:27:04;;;;;;;4.82;1.63;;;16.40;99.90;;;;;;5034385;28;20033;-75
2024/02/06 02:29:31;;;;;;;6.97;1.65;;;16.40;99.90;;;;;;5052528;28;20375;-74
2024/02/06 02:31:58;;;;;;;8.82;1.83;;;16.30;99.90;;;;;;5050991;28;20048;-74
2024/02/06 02:34:23;;;;;;;5.80;1.77;;;16.30;99.90;;;;;;5049230;28;20025;-75
2024/02/06 02:36:49;;;;;;;7.77;1.67;;;16.30;99.90;;;;;;5050236;28;20497;-75
2024/02/06 02:39:15;;;;;;;3.67;1.60;;;16.30;99.90;;;;;;5039999;28;20084;-74
2024/02/06 02:41:41;;;;;;;7.83;2.30;;;16.30;99.90;;;;;;5046915;28;20049;-74
2024/02/06 02:44:06;;;;;;;8.90;2.07;;;16.30;99.90;;;;;;5042744;28;20033;-74
2024/02/06 02:46:32;;;;;;;5.57;1.67;;;16.30;99.90;;;;;;5051654;28;20032;-74
2024/02/06 02:48:58;;;;;;;8.43;2.25;;;16.30;99.90;;;;;;5045139;28;20048;-74
2024/02/06 02:51:24;;;;;;;6.83;2.03;;;16.30;99.90;;;;;;5048493;28;20025;-74
2024/02/06 02:53:50;;;;;;;7.13;2.07;;;16.30;99.90;;;;;;5046619;28;20017;-75
2024/02/06 02:56:16;;;;;;;6.50;1.97;;;16.30;99.90;;;;;;5053087;28;20111;-74
2024/02/06 02:58:42;;;;;;;10.85;1.90;;;16.30;99.90;;;;;;5051175;28;20029;-75
2024/02/06 03:01:08;;;;;;;8.17;2.43;;;16.30;99.90;;;;;;5048486;28;20081;-75
2024/02/06 03:03:34;;;;;;;7.37;1.70;;;16.30;99.90;;;;;;5051256;28;20048;-75
2024/02/06 03:06:00;;;;;;;6.82;1.80;;;16.30;99.90;;;;;;5051791;28;20642;-75
2024/02/06 03:08:26;;;;;;;10.67;2.23;;;16.20;99.90;;;;;;5047973;28;20059;-74
2024/02/06 03:10:51;;;;;;;8.50;2.00;;;16.20;99.90;;;;;;5047778;28;20028;-74
2024/02/06 03:13:18;;;;;;;6.70;1.97;;;16.30;99.90;;;;;;5051542;28;20033;-75
2024/02/06 03:15:44;;;;;;;;;;;16.20;99.90;;;;;;5050081;28;20122;-75
2024/02/06 03:18:10;;;;;;;4.87;1.87;;;16.20;99.90;;;;;;5046128;28;19951;-74
2024/02/06 03:20:35;;;;;;;8.77;1.93;;;16.20;99.90;;;;;;5052302;28;20033;-73
2024/02/06 03:23:01;;;;;;;6.00;2.10;;;16.20;99.90;;;;;;5052607;28;20055;-74
2024/02/06 03:25:27;;;;;;;6.87;1.87;;;16.20;99.90;;;;;;5047022;28;20029;-73
2024/02/06 03:27:52;;;;;;;9.23;2.10;;;16.20;99.90;;;;;;5048125;28;20041;-73
2024/02/06 03:30:18;;;;;;;6.60;1.50;;;16.20;99.90;;;;;;5044448;28;20139;-73
2024/02/06 03:32:44;;;;;;;12.10;2.47;;;16.20;99.90;;;;;;5051707;28;20025;-73
2024/02/06 03:35:10;;;;;;;6.93;1.63;;;16.20;99.90;;;;;;5049746;28;20055;-74
2024/02/06 03:37:36;;;;;;;7.43;2.53;;;16.20;99.90;;;;;;5050825;28;20740;-74
2024/02/06 03:40:03;;;;;;;7.10;1.90;;;16.20;99.90;;;;;;5052438;28;20033;-74
2024/02/06 03:42:28;;;;;;;10.63;2.20;;;16.20;99.90;;;;;;5046883;28;20029;-74
2024/02/06 03:44:54;;;;;;;9.60;1.70;;;16.20;99.90;;;;;;5050626;28;20098;-74
2024/02/06 03:47:20;;;;;;;7.63;1.80;;;16.20;99.90;;;;;;5050097;28;20482;-74
2024/02/06 03:49:45;;;;;;;5.23;1.80;;;16.20;99.90;;;;;;5039122;28;20029;-75
2024/02/06 03:52:11;;;;;;;7.43;1.90;;;16.20;99.90;;;;;;5047260;28;20383;-74
2024/02/06 03:54:37;;;;;;;8.23;1.93;;;16.20;99.90;;;;;;5049403;28;20029;-74
2024/02/06 03:57:03;;;;;;;7.23;1.70;;;16.20;99.90;;;;;;5051306;28;20021;-74
2024/02/06 03:59:28;;;;;;;4.80;1.80;;;16.20;99.90;;;;;;5041402;28;20418;-74
2024/02/06 04:01:54;;;;;;;6.63;1.80;;;16.20;99.90;;;;;;5044440;28;20037;-74
2024/02/06 04:04:20;;;;;;;7.83;2.80;;;16.20;99.90;;;;;;5048261;28;20367;-74
2024/02/06 04:06:45;;;;;;;7.63;2.33;;;16.20;99.90;;;;;;5050984;28;20028;-74
2024/02/06 04:09:11;;;;;;;9.40;3.37;;;16.10;99.90;;;;;;5038155;28;20037;-74
2024/02/06 04:11:37;;;;;;;8.87;1.50;;;16.20;99.90;;;;;;5051121;28;20504;-74
2024/02/06 04:14:02;;;;;;;8.93;1.83;;;16.10;99.90;;;;;;5046230;28;20032;-74
2024/02/06 04:16:28;;;;;;;12.00;2.10;;;16.10;99.90;;;;;;5049895;28;20040;-73
2024/02/06 04:18:54;;;;;;;6.53;1.77;;;16.10;99.90;;;;;;5048597;28;20040;-74
2024/02/06 04:21:20;;;;;;;8.70;1.90;;;16.10;99.90;;;;;;5050445;28;20438;-73
2024/02/06 04:23:45;;;;;;;6.30;1.63;;;16.10;99.90;;;;;;5039916;28;20051;-74
2024/02/06 04:26:12;;;;;;;7.37;2.40;;;16.10;99.90;;;;;;5040550;28;20033;-74
2024/02/06 04:28:38;;;;;;;9.60;2.25;;;16.10;99.90;;;;;;5050560;28;20057;-73
2024/02/06 04:31:04;;;;;;;7.73;2.07;;;16.10;99.90;;;;;;5040074;28;20583;-73
2024/02/06 04:33:30;;;;;;;10.00;1.80;;;16.10;99.90;;;;;;5042279;28;20119;-76
2024/02/06 04:35:55;;;;;;;8.27;2.03;;;16.10;99.90;;;;;;5041126;28;20036;-74
2024/02/06 04:38:21;;;;;;;6.13;1.80;;;16.10;99.90;;;;;;5041319;28;20076;-74
2024/02/06 04:40:47;;;;;;;5.27;2.00;;;16.10;99.90;;;;;;5042783;28;20419;-73
2024/02/06 04:43:12;;;;;;;9.13;2.00;;;16.10;99.90;;;;;;5039764;28;20091;-74
2024/02/06 04:45:38;;;;;;;5.83;2.03;;;16.10;99.90;;;;;;5034053;28;20374;-73
2024/02/06 04:48:04;;;;;;;9.30;2.10;;;16.10;99.90;;;;;;5035102;28;20056;-74
2024/02/06 04:50:30;;;;;;;6.97;1.65;;;16.00;99.90;;;;;;5043147;28;20087;-74
2024/02/06 04:53:00;;;;;;;9.23;1.80;;;16.10;99.90;;;;;;5042515;28;20071;-74
2024/02/06 04:55:25;;;;;;;8.52;2.10;;;16.10;99.90;;;;;;5050216;28;20135;-74
2024/02/06 04:57:51;;;;;;;3.77;1.67;;;16.10;99.90;;;;;;5043349;28;20380;-74
2024/02/06 05:00:17;;;;;;;9.63;2.57;;;16.10;99.90;;;;;;5036712;28;20036;-75
2024/02/06 05:02:43;;;;;;;5.53;1.83;;;16.00;99.90;;;;;;5036119;28;20442;-74
2024/02/06 05:05:09;;;;;;;6.40;1.63;;;16.00;99.90;;;;;;5045905;28;20037;-75
2024/02/06 05:07:35;;;;;;;9.93;1.63;;;16.10;99.90;;;;;;5046205;28;20036;-74
2024/02/06 05:10:00;;;;;;;9.73;2.57;;;16.00;99.90;;;;;;5050655;28;20028;-74
2024/02/06 05:12:26;;;;;;;12.00;2.13;;;16.00;99.90;;;;;;5050030;28;20056;-74
2024/02/06 05:14:52;;;;;;;11.85;1.88;;;16.00;99.90;;;;;;5049537;28;20024;-74
2024/02/06 05:17:18;;;;;;;7.97;2.00;;;16.00;99.90;;;;;;5051003;28;20029;-74
2024/02/06 05:19:44;;;;;;;12.68;2.17;;;16.00;99.90;;;;;;5043532;28;20036;-75
2024/02/06 05:22:10;;;;;;;8.70;1.77;;;16.00;99.90;;;;;;5049131;28;20652;-74
2024/02/06 05:24:36;;;;;;;4.27;1.70;;;16.00;99.90;;;;;;5042859;28;20038;-75
2024/02/06 05:27:03;;;;;;;4.13;1.40;;;16.00;99.90;;;;;;5045307;28;20040;-74
2024/02/06 05:29:30;;;;;;;8.13;2.15;;;16.00;99.90;;;;;;5036678;28;20305;-74
2024/02/06 05:31:56;;;;;;;;;;;16.00;99.90;;;;;;5051110;28;20025;-73
2024/02/06 05:34:22;;;;;;;6.90;1.73;;;16.00;99.90;;;;;;5052039;28;20250;-73
2024/02/06 05:36:47;;;;;;;10.27;2.17;;;16.00;99.90;;;;;;5054243;28;20386;-73
2024/02/06 05:39:13;;;;;;;6.30;1.67;;;16.00;99.90;;;;;;5053887;28;20040;-74
2024/02/06 05:41:39;;;;;;;11.23;2.63;;;16.00;99.90;;;;;;5043301;28;20085;-73
2024/02/06 05:44:05;;;;;;;7.90;2.27;;;16.00;99.90;;;;;;5046325;28;20033;-73
2024/02/06 05:46:31;;;;;;;8.23;2.70;;;15.90;99.90;;;;;;5054388;28;20032;-74
2024/02/06 05:48:57;;;;;;;7.60;1.77;;;15.90;99.90;;;;;;5054380;28;20502;-73
2024/02/06 05:51:23;;;;;;;9.90;2.05;;;15.90;99.90;;;;;;5053078;28;20021;-74
2024/02/06 05:53:49;;;;;;;7.17;1.90;;;15.90;99.90;;;;;;5052920;28;20036;-74
2024/02/06 05:56:15;;;;;;;9.13;1.90;;;15.90;99.90;;;;;;5054101;28;20068;-74
2024/02/06 05:58:42;;;;;;;11.87;2.33;;;15.90;99.90;;;;;;5054138;28;20033;-73
2024/02/06 06:01:08;;;;;;;7.15;1.63;;;15.90;99.90;;;;;;5040955;28;20059;-76
2024/02/06 06:03:34;;;;;;;11.60;2.35;;;15.90;99.90;;;;;;5048053;28;20484;-73
2024/02/06 06:06:00;;;;;;;8.53;2.70;;;15.90;99.90;;;;;;5048724;28;20110;-74
2024/02/06 06:08:25;;;;;;;9.70;1.90;;;15.90;99.90;;;;;;5040958;28;20033;-73
2024/02/06 06:10:51;;;;;;;18.83;2.80;;;15.90;99.90;;;;;;5050086;28;20167;-73
2024/02/06 06:13:17;;;;;;;11.37;2.50;;;15.90;99.90;;;;;;5054206;28;20032;-73
2024/02/06 06:15:43;;;;;;;11.67;2.53;;;15.90;99.90;;;;;;5052573;28;20039;-73
2024/02/06 06:18:08;;;;;;;7.70;2.07;;;15.90;99.90;;;;;;5052847;28;20103;-73
2024/02/06 06:20:34;;;;;;;14.30;2.50;;;15.90;99.90;;;;;;5042247;28;20052;-73
2024/02/06 06:23:00;;;;;;;12.23;2.10;;;15.90;99.90;;;;;;5051023;28;20028;-73
2024/02/06 06:25:25;;;;;;;18.23;3.10;;;15.90;99.90;;;;;;5046988;28;20039;-74
2024/02/06 06:27:52;;;;;;;11.80;2.17;;;15.90;99.90;;;;;;5040120;28;20107;-74
2024/02/06 06:30:18;;;;;;;12.77;3.20;;;15.90;99.90;;;;;;5053788;28;20025;-73
2024/02/06 06:32:44;;;;;;;13.63;2.17;;;15.90;99.90;;;;;;5053545;28;20029;-74
2024/02/06 06:35:10;;;;;;;10.67;2.10;;;15.90;99.90;;;;;;5053894;28;20087;-74
2024/02/06 06:37:36;;;;;;;13.68;2.45;;;15.90;99.90;;;;;;5053463;28;20047;-73
2024/02/06 06:40:03;;;;;;;7.57;2.13;;;15.90;99.90;;;;;;5052330;28;20041;-73
2024/02/06 06:42:29;;;;;;;8.15;2.05;;;15.90;99.90;;;;;;5053445;28;20395;-74
2024/02/06 06:44:55;;;;;;;8.67;2.10;;;15.90;99.90;;;;;;5053484;28;20036;-74
2024/02/06 06:47:20;;;;;;;8.83;2.10;;;15.90;99.90;;;;;;5052688;28;20040;-74
2024/02/06 06:49:46;;;;;;;9.03;1.80;;;15.90;99.90;;;;;;5051102;28;20037;-74
2024/02/06 06:52:12;;;;;;;7.50;1.87;;;15.80;99.90;;;;;;5052125;28;20064;-74
2024/02/06 06:54:39;;;;;;;11.73;2.17;;;15.90;99.90;;;;;;5053131;28;20043;-73
2024/02/06 06:57:05;;;;;;;7.25;1.73;;;15.90;99.90;;;;;;5053574;28;20071;-73
2024/02/06 06:59:31;;;;;;;14.00;2.53;;;15.80;99.90;;;;;;5050320;28;20453;-73
2024/02/06 07:01:58;;;;;;;13.43;2.97;;;15.90;99.90;;;;;;5053213;28;20064;-74
2024/02/06 07:04:28;;;;;;;11.57;2.75;;;15.90;99.90;;;;;;5053328;28;20099;-74
2024/02/06 07:06:54;;;;;;;56.60;29.48;;;15.90;99.90;;;;;;5053142;28;20025;-75
2024/02/06 07:09:25;;;;;;;16.33;6.82;;;16.00;99.90;;;;;;5045328;28;20691;-73
2024/02/06 07:11:52;;;;;;;19.30;7.32;;;16.00;99.90;;;;;;5051741;28;20029;-73
2024/02/06 07:14:18;;;;;;;91.72;59.78;;;16.00;99.90;;;;;;5051764;28;20381;-74
2024/02/06 07:16:44;;;;;;;43.78;21.00;;;16.00;99.90;;;;;;5052835;28;20377;-74
2024/02/06 07:19:10;;;;;;;30.75;16.63;;;16.00;99.90;;;;;;5052101;28;20115;-74
2024/02/06 07:21:35;;;;;;;30.43;16.50;;;16.00;99.90;;;;;;5053058;28;20033;-73
2024/02/06 07:24:01;;;;;;;35.13;14.97;;;16.00;99.90;;;;;;5049774;28;20048;-74
2024/02/06 07:26:27;;;;;;;28.17;14.03;;;16.00;99.90;;;;;;5037605;28;20028;-74
2024/02/06 07:28:54;;;;;;;28.08;14.88;;;16.00;99.90;;;;;;5052506;28;20049;-74
2024/02/06 07:31:20;;;;;;;;;;;16.00;99.90;;;;;;5046624;28;20041;-74
2024/02/06 07:33:46;;;;;;;22.17;12.30;;;16.00;99.90;;;;;;5049612;28;19916;-74
2024/02/06 07:36:15;;;;;;;23.15;12.15;;;16.00;99.90;;;;;;5046133;28;20385;-74
2024/02/06 07:38:43;;;;;;;32.35;12.57;;;16.00;99.90;;;;;;5052264;28;20462;-74
2024/02/06 07:41:09;;;;;;;55.65;35.33;;;16.10;99.90;;;;;;5050349;28;20029;-73
2024/02/06 07:43:38;;;;;;;35.50;17.80;;;16.10;99.90;;;;;;5051075;28;20083;-74
2024/02/06 07:46:07;;;;;;;25.92;13.55;;;16.10;99.90;;;;;;5051055;28;20075;-74
2024/02/06 07:48:33;;;;;;;32.80;13.73;;;16.00;99.90;;;;;;5040924;28;20032;-74
2024/02/06 07:50:59;;;;;;;29.52;13.45;;;16.10;99.90;;;;;;5051459;28;20107;-74
2024/02/06 07:53:24;;;;;;;24.13;12.20;;;16.10;99.90;;;;;;5050870;28;20538;-74
2024/02/06 07:55:50;;;;;;;31.33;13.10;;;16.10;99.90;;;;;;5050812;28;20310;-74
2024/02/06 07:58:16;;;;;;;32.93;13.03;;;16.10;99.90;;;;;;5050052;28;20516;-74
2024/02/06 08:00:43;;;;;;;21.55;11.23;;;16.10;99.90;;;;;;5052491;28;20039;-74
2024/02/06 08:03:10;;;;;;;27.58;11.38;;;16.10;99.90;;;;;;5048457;28;20021;-73
2024/02/06 08:05:35;;;;;;;;;;;16.10;99.90;;;;;;5051321;28;20119;-74
2024/02/06 08:08:01;;;;;;;29.80;11.27;;;16.10;99.90;;;;;;5051092;28;19995;-74
2024/02/06 08:10:27;;;;;;;20.23;10.83;;;16.10;99.90;;;;;;5049446;28;20033;-74
2024/02/06 08:12:55;;;;;;;21.27;9.23;;;16.20;99.90;;;;;;5051044;28;20159;-75
2024/02/06 08:15:21;;;;;;;25.88;8.77;;;16.20;99.90;;;;;;5049823;28;20421;-74
2024/02/06 08:17:50;;;;;;;24.93;8.33;;;16.20;99.90;;;;;;5051163;28;20041;-74
2024/02/06 08:20:19;;;;;;;30.33;12.10;;;16.20;99.90;;;;;;5048835;28;20029;-74
2024/02/06 08:22:47;;;;;;;30.20;10.10;;;16.20;99.90;;;;;;5050945;28;20385;-74
2024/02/06 08:25:15;;;;;;;19.25;9.30;;;16.20;99.90;;;;;;5045627;28;20049;-73
2024/02/06 08:27:41;;;;;;;27.40;9.05;;;16.20;99.90;;;;;;5043111;28;20489;-74
2024/02/06 08:30:09;;;;;;;22.33;8.43;;;16.30;99.90;;;;;;5055052;28;20032;-74
2024/02/06 08:32:35;;;;;;;26.17;9.27;;;16.30;99.90;;;;;;5053461;28;20037;-74
2024/02/06 08:35:01;;;;;;;28.00;8.65;;;16.30;99.90;;;;;;5042626;28;20056;-73
2024/02/06 08:37:27;;;;;;;22.83;8.97;;;16.30;99.90;;;;;;5051517;28;20072;-74
2024/02/06 08:39:53;;;;;;;28.03;7.93;;;16.40;99.90;;;;;;5043864;28;20033;-74
2024/02/06 08:42:19;;;;;;;26.13;8.37;;;16.40;99.90;;;;;;5040881;28;20032;-74
2024/02/06 08:44:44;;;;;;;26.20;7.65;;;16.40;99.90;;;;;;5049018;28;20028;-74
2024/02/06 08:47:10;;;;;;;29.10;7.50;;;16.50;99.90;;;;;;5050432;28;20108;-74
2024/02/06 08:49:36;;;;;;;18.47;7.70;;;16.50;99.90;;;;;;5048152;28;20724;-74
2024/02/06 08:52:03;;;;;;;16.17;6.40;;;16.50;99.90;;;;;;5050055;28;20071;-74
2024/02/06 08:54:28;;;;;;;;;;;16.50;99.90;;;;;;5050329;28;20054;-74
2024/02/06 08:56:55;;;;;;;24.90;7.05;;;16.50;99.90;;;;;;5049738;28;19913;-74
2024/02/06 08:59:21;;;;;;;19.40;6.73;;;16.60;99.90;;;;;;5048300;28;20048;-74
2024/02/06 09:01:46;;;;;;;22.40;7.37;;;16.60;99.90;;;;;;5049468;28;20058;-74
2024/02/06 09:04:12;;;;;;;26.60;8.67;;;16.60;99.90;;;;;;5049850;28;20116;-74
2024/02/06 09:06:38;;;;;;;22.90;8.55;;;16.60;99.90;;;;;;5045643;28;20071;-73
2024/02/06 09:09:04;;;;;;;23.53;7.47;;;16.70;99.90;;;;;;5043535;28;20040;-74
2024/02/06 09:11:31;;;;;;;22.60;7.82;;;16.80;99.90;;;;;;5044936;28;20041;-74
2024/02/06 09:13:56;;;;;;;28.08;8.15;;;16.80;99.90;;;;;;5048475;28;20033;-74
2024/02/06 09:16:22;;;;;;;25.40;8.03;;;16.90;99.90;;;;;;5048864;28;20470;-74
2024/02/06 09:18:49;;;;;;;15.37;5.83;;;17.00;99.90;;;;;;5050127;28;20025;-74
2024/02/06 09:21:19;;;;;;;25.00;6.50;;;17.10;99.90;;;;;;5048787;28;20288;-74
2024/02/06 09:23:45;;;;;;;21.92;6.32;;;17.00;99.90;;;;;;5049861;28;20080;-74
2024/02/06 09:26:11;;;;;;;12.05;5.05;;;17.10;99.90;;;;;;5047662;28;20131;-74
2024/02/06 09:28:38;;;;;;;21.20;6.07;;;17.20;99.90;;;;;;5047727;28;20060;-74
2024/02/06 09:31:06;;;;;;;16.42;6.15;;;17.20;99.90;;;;;;5043193;28;20067;-74
2024/02/06 09:33:32;;;;;;;10.57;5.45;;;17.30;99.90;;;;;;5047040;28;20532;-74
2024/02/06 09:35:58;;;;;;;14.05;5.10;;;17.50;99.90;;;;;;5049496;28;20060;-75
2024/02/06 09:38:26;;;;;;;15.13;6.00;;;17.60;99.90;;;;;;5048844;28;20041;-74
2024/02/06 09:40:52;;;;;;;13.57;4.75;;;17.70;99.90;;;;;;5048713;28;20070;-74
2024/02/06 09:43:19;;;;;;;15.30;4.93;;;17.70;99.90;;;;;;5044618;28;20176;-75
2024/02/06 09:45:44;;;;;;;14.68;5.03;;;17.80;99.90;;;;;;5045209;28;20033;-74
2024/02/06 09:48:10;;;;;;;22.00;5.80;;;18.00;99.90;;;;;;5044708;28;20606;-74
2024/02/06 09:50:36;;;;;;;13.77;4.80;;;18.10;99.90;;;;;;5035239;28;20033;-74
2024/02/06 09:53:02;;;;;;;17.63;5.23;;;18.40;99.90;;;;;;5041156;28;20064;-74
2024/02/06 09:55:29;;;;;;;17.50;4.60;;;18.50;99.90;;;;;;5043122;28;20044;-74
2024/02/06 09:57:57;;;;;;;15.50;4.03;;;18.70;99.90;;;;;;5045940;28;20083;-75
2024/02/06 10:00:24;;;;;;;18.48;3.88;;;18.90;99.90;;;;;;5046379;28;20029;-74
2024/02/06 10:02:56;;;;;;;11.23;4.10;;;18.90;99.90;;;;;;5046718;28;20455;-74
2024/02/06 10:05:26;;;;;;;12.90;3.55;;;18.60;99.90;;;;;;5047865;28;20057;-74
2024/02/06 10:07:53;;;;;;;9.48;3.40;;;18.40;99.90;;;;;;5049583;28;20037;-75
2024/02/06 10:10:19;;;;;;;;;;;18.30;99.90;;;;;;5032981;28;20109;-76
2024/02/06 10:12:46;;;;;;;15.45;3.45;;;18.30;99.90;;;;;;5037498;28;19916;-75
2024/02/06 10:15:21;;;;;;;18.50;4.95;;;18.20;99.90;;;;;;5045818;28;20048;-75
2024/02/06 10:17:47;;;;;;;13.27;3.88;;;18.40;99.90;;;;;;5040763;28;20017;-75
2024/02/06 10:20:13;;;;;;;12.25;3.97;;;18.30;99.90;;;;;;5049564;28;20017;-74
2024/02/06 10:22:40;;;;;;;18.88;6.00;;;18.20;99.90;;;;;;5052576;28;20033;-74
2024/02/06 10:25:08;;;;;;;20.02;6.88;;;18.20;99.90;;;;;;5051515;28;20033;-74
2024/02/06 10:27:34;;;;;;;12.68;5.10;;;18.10;99.90;;;;;;5052572;28;20041;-74
2024/02/06 10:30:01;;;;;;;17.03;4.57;;;18.30;99.90;;;;;;5051997;28;20036;-74
2024/02/06 10:32:36;;;;;;;15.35;4.53;;;18.50;99.90;;;;;;5050754;28;20044;-76
2024/02/06 10:35:04;;;;;;;13.90;4.28;;;18.70;99.90;;;;;;5052390;28;20412;-76
2024/02/06 10:37:40;;;;;;;16.30;4.43;;;19.00;99.90;;;;;;5052335;28;20028;-75
2024/02/06 10:40:10;;;;;;;17.45;4.35;;;19.40;99.90;;;;;;5052405;28;20148;-75
2024/02/06 10:42:36;;;;;;;11.98;3.95;;;19.20;99.90;;;;;;5052506;28;20036;-74
2024/02/06 10:45:03;;;;;;;14.90;4.05;;;19.20;99.90;;;;;;5052940;28;20029;-74
2024/02/06 10:47:29;;;;;;;14.73;4.20;;;19.10;99.90;;;;;;5051959;28;20067;-76
2024/02/06 10:50:04;;;;;;;;;;;19.00;99.90;;;;;;5053123;28;20146;-74
2024/02/06 10:52:31;;;;;;;12.35;3.30;;;18.90;99.90;;;;;;5051254;28;19909;-74
2024/02/06 10:54:57;;;;;;;15.63;3.20;;;18.80;99.90;;;;;;5051219;28;20393;-75
2024/02/06 10:57:31;;;;;;;10.30;3.80;;;18.80;99.90;;;;;;5050540;28;20029;-74
2024/02/06 11:00:15;;;;;;;9.63;2.80;;;18.70;99.90;;;;;;5049917;28;20047;-74
2024/02/06 11:02:46;;;;;;;17.17;3.90;;;18.80;99.90;;;;;;5052333;28;20104;-74
2024/02/06 11:05:26;;;;;;;12.10;2.78;;;18.80;99.90;;;;;;5040959;28;20506;-74
2024/02/06 11:08:06;;;;;;;11.82;3.28;;;18.60;99.90;;;;;;5051423;28;20055;-75
2024/02/06 11:10:36;;;;;;;11.00;3.45;;;18.70;99.90;;;;;;5052003;28;20029;-75
2024/02/06 11:13:06;;;;;;;17.45;3.45;;;18.90;99.90;;;;;;5051451;28;20029;-75
2024/02/06 11:15:36;;;;;;;8.30;2.95;;;18.80;99.90;;;;;;5051935;28;20021;-76
2024/02/06 11:18:09;;;;;;;14.73;3.25;;;18.60;99.90;;;;;;5052184;28;20045;-75
2024/02/06 11:20:37;;;;;;;19.60;3.13;;;18.40;99.90;;;;;;5047454;28;20021;-75
2024/02/06 11:23:06;;;;;;;10.38;2.90;;;18.30;99.90;;;;;;5046922;28;20100;-75
2024/02/06 11:25:32;;;;;;;12.73;4.20;;;18.30;99.90;;;;;;5047967;28;20071;-74
2024/02/06 11:27:59;;;;;;;16.05;3.20;;;18.30;99.90;;;;;;5043407;28;20057;-75
2024/02/06 11:30:27;;;;;;;13.38;3.47;;;18.20;99.90;;;;;;5045986;28;20055;-74
2024/02/06 11:33:04;;;;;;;7.32;2.88;;;18.20;99.90;;;;;;5048871;28;20025;-75
2024/02/06 11:35:29;;;;;;;13.63;3.47;;;18.20;99.90;;;;;;5046082;28;20037;-74
2024/02/06 11:37:55;;;;;;;12.40;2.90;;;18.20;99.90;;;;;;5049656;28;20103;-75
2024/02/06 11:40:28;;;;;;;12.33;2.97;;;18.30;99.90;;;;;;5047945;28;20289;-74
2024/02/06 11:43:07;;;;;;;10.10;2.60;;;18.20;99.90;;;;;;5051279;28;20037;-75
2024/02/06 11:45:35;;;;;;;8.43;2.97;;;18.20;99.90;;;;;;5051414;28;20048;-76
2024/02/06 11:48:06;;;;;;;12.77;3.03;;;18.20;99.90;;;;;;5050232;28;20501;-74
2024/02/06 11:50:43;;;;;;;9.77;3.08;;;18.20;99.90;;;;;;5049669;28;20100;-76
2024/02/06 11:53:11;;;;;;;;;;;18.20;99.90;;;;;;5051362;28;20377;-75
2024/02/06 11:55:37;;;;;;;8.70;2.58;;;18.20;99.90;;;;;;5050112;28;19912;-75
2024/02/06 11:58:03;;;;;;;8.73;2.53;;;18.10;99.90;;;;;;5050691;28;20040;-75
2024/02/06 12:00:29;;;;;;;8.98;2.53;;;18.10;99.90;;;;;;5051499;28;20032;-76
2024/02/06 12:02:56;;;;;;;13.13;3.23;;;18.10;99.90;;;;;;5051587;28;20417;-75
2024/02/06 12:05:22;;;;;;;15.10;3.42;;;18.10;99.90;;;;;;5049429;28;20025;-75
2024/02/06 12:07:55;;;;;;;7.07;2.43;;;18.10;99.90;;;;;;5043582;28;20032;-75
2024/02/06 12:10:32;;;;;;;4.80;1.75;;;18.10;99.90;;;;;;5046973;28;20029;-74
2024/02/06 12:13:05;;;;;;;8.52;2.20;;;18.10;99.90;;;;;;5047605;28;20478;-74
2024/02/06 12:15:34;;;;;;;12.27;2.30;;;18.10;99.90;;;;;;5048439;28;20037;-76
2024/02/06 12:18:04;;;;;;;6.25;1.85;;;18.10;99.90;;;;;;5048663;28;20082;-76
2024/02/06 12:20:30;;;;;;;9.35;2.10;;;18.00;99.90;;;;;;5044950;28;20522;-75
2024/02/06 12:23:03;;;;;;;7.35;2.08;;;18.00;99.90;;;;;;5044133;28;20394;-75
2024/02/06 12:25:30;;;;;;;7.78;2.17;;;18.00;99.90;;;;;;5039667;28;20032;-75
2024/02/06 12:28:04;;;;;;;9.90;1.98;;;18.00;99.90;;;;;;5050463;28;20049;-75
2024/02/06 12:30:30;;;;;;;8.32;2.40;;;17.90;99.90;;;;;;5050669;28;20037;-75
2024/02/06 12:33:01;;;;;;;8.88;2.60;;;17.90;99.90;;;;;;5045898;28;20053;-75
2024/02/06 12:35:28;;;;;;;10.70;2.75;;;17.90;99.90;;;;;;5035859;28;20035;-75
2024/02/06 12:37:57;;;;;;;;;;;17.90;99.90;;;;;;5047712;28;20032;-74
2024/02/06 12:40:25;;;;;;;8.10;2.45;;;17.80;99.90;;;;;;5037641;28;19912;-75